Bunbury, Australia
Current Conditions -  °F | °C
As of 6:00 PM on Thursday 23 Oct 2014 (Local Time) from YPJT Reporting Station
Clear Clear  
Wind Chill: 66°   Ceiling: Unl
Heat Index: 66°   Visibility: 6mi
Dew Point: 54°   Wind: 12mph
Humidity: 64%   Direction: 220°SW
Pressure: 30.03"   Gusts: NA
Location:  33.33°S, 115.64°E
Report Text: YPJT 231000Z AUTO 22010KT 9999 // NCD 19/12 Q1017
Loading
Personal Weather Stations






























Interactive Weather Map
Tropical Storm Tracking
New forecast layout! Learn more

10-Day Weather Forecast

Advertisements
Track Severe Weather on mobile